createdAt,value
2018-12-01T05:01:29.768Z,3.77
2018-12-01T05:03:57.849Z,3.80
2018-12-01T05:06:25.898Z,3.60
2018-12-01T05:08:53.992Z,3.17
2018-12-01T05:11:22.020Z,3.77
2018-12-01T05:13:50.091Z,3.80
2018-12-01T05:16:18.228Z,4.47
2018-12-01T05:18:46.327Z,4.10
2018-12-01T05:21:14.371Z,3.00
2018-12-01T05:23:42.417Z,3.73
2018-12-01T05:26:10.504Z,3.60
2018-12-01T05:28:38.552Z,3.70
2018-12-01T05:31:06.620Z,4.87
2018-12-01T05:33:34.656Z,3.70
2018-12-01T05:36:02.717Z,4.67
2018-12-01T05:38:30.768Z,4.70
2018-12-01T05:40:58.885Z,3.83
2018-12-01T05:43:26.931Z,5.13
2018-12-01T05:45:54.983Z,4.00
2018-12-01T05:48:23.016Z,4.23
2018-12-01T05:50:51.100Z,4.43
2018-12-01T05:53:19.163Z,3.80
2018-12-01T05:55:47.260Z,5.20
2018-12-01T05:58:15.336Z,4.23
2018-12-01T06:00:43.463Z,4.30
2018-12-01T06:03:11.512Z,4.47
2018-12-01T06:05:39.568Z,4.40
2018-12-01T06:08:07.628Z,3.87
2018-12-01T06:10:35.713Z,5.10
2018-12-01T06:13:03.760Z,3.87
2018-12-01T06:15:31.835Z,3.87
2018-12-01T06:17:59.907Z,4.67
2018-12-01T06:20:27.976Z,4.50
2018-12-01T06:22:56.048Z,3.20
2018-12-01T06:25:24.406Z,3.80
2018-12-01T06:27:53.112Z,3.83
2018-12-01T06:30:21.314Z,3.30
2018-12-01T06:32:50.345Z,3.67
2018-12-01T06:35:18.423Z,2.90
2018-12-01T06:37:46.497Z,2.73
2018-12-01T06:40:18.343Z,3.13
2018-12-01T06:42:46.427Z,2.97
2018-12-01T06:45:15.076Z,2.73
2018-12-01T06:47:43.312Z,2.80
2018-12-01T06:50:14.049Z,3.40
2018-12-01T06:52:42.099Z,2.53
2018-12-01T06:55:11.267Z,2.10
2018-12-01T06:57:39.384Z,3.10
2018-12-01T07:00:12.835Z,2.83
2018-12-01T07:02:41.295Z,2.30
2018-12-01T07:05:10.329Z,2.43
2018-12-01T07:07:38.428Z,1.83
2018-12-01T07:10:08.728Z,2.40
2018-12-01T07:12:36.768Z,2.50
2018-12-01T07:15:06.497Z,2.50
2018-12-01T07:17:34.528Z,2.70
2018-12-01T07:20:02.636Z,2.07
2018-12-01T07:22:30.667Z,2.27
2018-12-01T07:24:58.716Z,2.80
2018-12-01T07:27:26.848Z,2.40
2018-12-01T07:29:58.051Z,3.03
2018-12-01T07:32:23.080Z,2.20
2018-12-01T07:34:51.182Z,2.70
2018-12-01T07:37:19.281Z,4.50
2018-12-01T07:39:48.912Z,3.10
2018-12-01T07:42:17.977Z,3.83
2018-12-01T07:44:47.044Z,2.93
2018-12-01T07:47:14.212Z,3.10
2018-12-01T07:49:42.310Z,2.80
2018-12-01T07:52:10.382Z,3.50
2018-12-01T07:54:38.472Z,2.90
2018-12-01T07:57:06.545Z,2.77
2018-12-01T07:59:34.596Z,4.00
2018-12-01T08:02:02.718Z,2.80
2018-12-01T08:04:30.800Z,3.10
2018-12-01T08:06:58.884Z,3.17
2018-12-01T08:09:26.944Z,2.97
2018-12-01T08:11:55.043Z,3.20
2018-12-01T08:14:23.208Z,2.50
2018-12-01T08:16:51.284Z,2.53
2018-12-01T08:19:19.369Z,2.40
2018-12-01T08:21:47.433Z,3.03
2018-12-01T08:24:15.504Z,3.27
2018-12-01T08:26:43.588Z,2.90
2018-12-01T08:29:11.672Z,2.87
2018-12-01T08:31:39.757Z,2.50
2018-12-01T08:34:07.860Z,3.27
2018-12-01T08:36:35.952Z,4.13
2018-12-01T08:39:05.953Z,2.90
2018-12-01T08:41:34.019Z,3.17
2018-12-01T08:44:02.060Z,3.07
2018-12-01T08:46:30.124Z,2.90
2018-12-01T08:48:58.173Z,2.60
2018-12-01T08:51:26.252Z,3.50
2018-12-01T08:53:54.841Z,2.87
2018-12-01T08:56:22.936Z,3.33
2018-12-01T08:58:51.072Z,2.97
2018-12-01T09:01:19.188Z,3.00
2018-12-01T09:03:47.273Z,2.13
2018-12-01T09:06:15.357Z,2.93
2018-12-01T09:08:43.545Z,2.60
2018-12-01T09:11:11.680Z,3.07
2018-12-01T09:13:39.732Z,3.60
2018-12-01T09:16:08.001Z,3.90
2018-12-01T09:18:36.100Z,3.63
2018-12-01T09:21:04.403Z,3.17
2018-12-01T09:23:32.492Z,2.63
2018-12-01T09:26:00.577Z,2.93
2018-12-01T09:28:28.653Z,3.20
2018-12-01T09:30:56.763Z,2.47
2018-12-01T09:33:24.828Z,2.60
2018-12-01T09:35:53.095Z,2.90
2018-12-01T09:38:21.147Z,2.00
2018-12-01T09:40:49.249Z,2.20
2018-12-01T09:43:17.312Z,1.93
2018-12-01T09:45:45.403Z,2.40
2018-12-01T09:48:14.180Z,2.43
2018-12-01T09:50:42.269Z,2.27
2018-12-01T09:53:10.797Z,1.97
2018-12-01T09:55:40.080Z,1.47
2018-12-01T09:58:08.110Z,1.90
2018-12-01T10:00:36.187Z,2.00
2018-12-01T10:03:06.212Z,2.07
2018-12-01T10:05:34.372Z,1.40
2018-12-01T10:08:02.461Z,1.67
2018-12-01T10:10:30.567Z,2.00
2018-12-01T10:12:58.756Z,1.80
2018-12-01T10:15:28.861Z,1.77
2018-12-01T10:17:57.033Z,1.83
2018-12-01T10:20:27.539Z,1.60
2018-12-01T10:22:55.760Z,2.00
2018-12-01T10:25:23.836Z,1.70
2018-12-01T10:27:51.920Z,1.60
2018-12-01T10:30:20.928Z,1.30
2018-12-01T10:32:49.682Z,3.53
2018-12-01T10:35:18.992Z,1.70
2018-12-01T10:37:48.720Z,1.47
2018-12-01T10:40:16.777Z,1.43
2018-12-01T10:42:44.870Z,1.50
2018-12-01T10:45:14.011Z,1.90
2018-12-01T10:47:42.632Z,2.00
2018-12-01T10:50:12.233Z,2.97
2018-12-01T10:52:40.411Z,2.50
2018-12-01T10:55:10.207Z,2.40
2018-12-01T10:57:38.300Z,2.20
2018-12-01T11:00:15.423Z,1.83
2018-12-01T11:02:49.023Z,1.90
2018-12-01T11:05:17.148Z,1.47
2018-12-01T11:07:45.228Z,1.63
2018-12-01T11:10:13.456Z,1.57
2018-12-01T11:12:41.553Z,2.23
2018-12-01T11:15:09.636Z,1.20
2018-12-01T11:17:37.732Z,2.10
2018-12-01T11:20:09.464Z,1.60
2018-12-01T11:22:37.611Z,1.67
2018-12-01T11:25:08.050Z,1.60
2018-12-01T11:27:36.390Z,1.60
2018-12-01T11:30:13.280Z,1.57
2018-12-01T11:32:42.059Z,1.80
2018-12-01T11:35:10.476Z,1.60
2018-12-01T11:37:39.558Z,2.10
2018-12-01T11:40:13.953Z,2.40
2018-12-01T11:42:42.035Z,1.83
2018-12-01T11:45:11.612Z,2.20
2018-12-01T11:47:39.717Z,1.57
2018-12-01T11:50:10.357Z,2.00
2018-12-01T11:52:38.508Z,1.80
2018-12-01T11:55:08.817Z,1.70
2018-12-01T11:57:36.971Z,1.83
2018-12-01T12:00:07.913Z,3.00
2018-12-01T12:02:36.288Z,2.70
2018-12-01T12:05:04.577Z,2.13
2018-12-01T12:07:44.039Z,2.10
2018-12-01T12:10:12.152Z,3.27
2018-12-01T12:12:40.236Z,1.87
2018-12-01T12:15:09.548Z,1.73
2018-12-01T12:17:37.956Z,1.57
2018-12-01T12:20:09.491Z,1.50
2018-12-01T12:22:37.651Z,1.30
2018-12-01T12:25:08.826Z,2.70
2018-12-01T12:27:36.893Z,1.83
2018-12-01T12:30:11.976Z,2.10
2018-12-01T12:32:40.089Z,1.80
2018-12-01T12:35:09.227Z,1.67
2018-12-01T12:37:37.344Z,2.63
2018-12-01T12:40:23.126Z,2.40
2018-12-01T12:42:52.619Z,1.23
2018-12-01T12:45:20.768Z,1.93
2018-12-01T12:47:48.911Z,2.10
2018-12-01T12:50:17.744Z,2.23
2018-12-01T12:52:46.700Z,2.20
2018-12-01T12:55:16.721Z,1.93
2018-12-01T12:57:44.960Z,1.77
2018-12-01T13:00:18.860Z,1.90
2018-12-01T13:02:49.710Z,1.87
2018-12-01T13:05:21.113Z,1.70
2018-12-01T13:07:49.352Z,3.00
2018-12-01T13:10:18.605Z,1.80
2018-12-01T13:12:46.739Z,2.10
2018-12-01T13:15:15.872Z,2.23
2018-12-01T13:17:44.256Z,2.20
2018-12-01T13:20:22.432Z,2.13
2018-12-01T13:22:51.916Z,2.13
2018-12-01T13:25:20.025Z,1.60
2018-12-01T13:28:01.691Z,1.97
2018-12-01T13:30:33.302Z,2.50
2018-12-01T13:33:03.625Z,1.90
2018-12-01T13:35:31.713Z,1.90
2018-12-01T13:37:59.882Z,2.07
2018-12-01T13:40:28.179Z,2.83
2018-12-01T13:42:56.257Z,1.47
2018-12-01T13:45:24.299Z,1.80
2018-12-01T13:47:54.195Z,1.83
2018-12-01T13:50:22.259Z,1.13
2018-12-01T13:52:57.508Z,1.77
2018-12-01T13:55:25.555Z,1.93
2018-12-01T13:57:54.739Z,2.20
2018-12-01T14:00:24.039Z,2.87
2018-12-01T14:02:52.361Z,2.40
2018-12-01T14:05:20.435Z,3.00
2018-12-01T14:07:48.531Z,3.47
2018-12-01T14:10:19.268Z,3.63
2018-12-01T14:12:48.499Z,3.60
2018-12-01T14:15:20.555Z,3.90
2018-12-01T14:17:48.793Z,4.40
2018-12-01T14:20:17.437Z,4.07
2018-12-01T14:22:46.484Z,5.73
2018-12-01T14:25:15.495Z,5.87
2018-12-01T14:27:47.348Z,5.07
2018-12-01T14:30:16.110Z,5.17
2018-12-01T14:32:44.564Z,5.10
2018-12-01T14:35:14.641Z,4.50
2018-12-01T14:37:43.135Z,4.70
2018-12-01T14:40:12.245Z,5.07
2018-12-01T14:42:41.755Z,4.90
2018-12-01T14:45:13.145Z,5.63
2018-12-01T14:47:42.274Z,4.90
2018-12-01T14:50:13.123Z,5.10
2018-12-01T14:52:42.648Z,4.97
2018-12-01T14:55:13.326Z,5.37
2018-12-01T14:57:42.295Z,4.90
2018-12-01T15:00:13.757Z,4.87
2018-12-01T15:02:42.482Z,5.50
2018-12-01T15:05:11.547Z,4.50
2018-12-01T15:07:39.712Z,5.00
2018-12-01T15:10:14.208Z,4.53
2018-12-01T15:12:42.679Z,4.60
2018-12-01T15:15:11.845Z,4.00
2018-12-01T15:17:39.905Z,4.27
2018-12-01T15:20:09.862Z,4.03
2018-12-01T15:22:37.935Z,4.70
2018-12-01T15:25:09.085Z,4.10
2018-12-01T15:27:37.144Z,3.70
2018-12-01T15:30:11.077Z,4.60
2018-12-01T15:32:39.128Z,3.50
2018-12-01T15:35:09.600Z,3.77
2018-12-01T15:37:38.483Z,4.20
2018-12-01T15:40:10.528Z,3.50
2018-12-01T15:42:38.577Z,4.13
2018-12-01T15:45:08.496Z,4.40
2018-12-01T15:47:36.576Z,4.00
2018-12-01T15:50:06.083Z,3.47
2018-12-01T15:52:34.132Z,3.83
2018-12-01T15:55:02.309Z,3.97
2018-12-01T15:57:30.397Z,4.10
2018-12-01T15:59:58.436Z,3.67
2018-12-01T16:02:26.513Z,3.70
2018-12-01T16:04:54.581Z,4.30
2018-12-01T16:07:22.668Z,2.80
2018-12-01T16:09:50.721Z,3.37
2018-12-01T16:12:18.775Z,3.70
2018-12-01T16:14:46.852Z,3.90
2018-12-01T16:17:14.929Z,3.60
2018-12-01T16:19:43.008Z,3.57
2018-12-01T16:22:11.120Z,3.40
2018-12-01T16:24:39.204Z,3.57
2018-12-01T16:27:07.264Z,2.90
2018-12-01T16:29:35.360Z,3.30
2018-12-01T16:32:03.552Z,2.97
2018-12-01T16:34:33.268Z,2.87
2018-12-01T16:37:01.333Z,3.00
2018-12-01T16:39:29.550Z,2.90
2018-12-01T16:41:58.440Z,3.60
2018-12-01T16:44:27.359Z,2.93
2018-12-01T16:46:56.308Z,2.73
2018-12-01T16:49:25.049Z,3.20
2018-12-01T16:51:53.228Z,2.10
2018-12-01T16:54:21.420Z,3.13
2018-12-01T16:56:49.628Z,2.70
2018-12-01T16:59:17.788Z,2.57
2018-12-01T17:01:45.908Z,2.70
2018-12-01T17:04:14.108Z,3.10
2018-12-01T17:06:42.184Z,2.30
2018-12-01T17:09:10.268Z,3.07
2018-12-01T17:11:38.492Z,2.90
2018-12-01T17:14:06.641Z,3.27
2018-12-01T17:16:34.711Z,2.60
2018-12-01T17:19:02.823Z,2.70
2018-12-01T17:21:31.002Z,2.53
2018-12-01T17:23:59.058Z,2.67
2018-12-01T17:26:27.176Z,2.40
2018-12-01T17:28:55.316Z,2.13
2018-12-01T17:31:23.813Z,2.77
2018-12-01T17:33:51.725Z,2.70
2018-12-01T17:36:19.787Z,2.13
2018-12-01T17:38:47.839Z,3.60
2018-12-01T17:41:22.083Z,2.90
2018-12-01T17:43:52.700Z,2.87
2018-12-01T17:46:21.209Z,3.27
2018-12-01T17:48:49.344Z,2.80
2018-12-01T17:51:17.812Z,2.90
2018-12-01T17:53:48.718Z,2.73
2018-12-01T17:56:16.844Z,2.80
2018-12-01T17:58:44.904Z,3.10
2018-12-01T18:01:13.035Z,2.80
2018-12-01T18:03:41.108Z,2.70
2018-12-01T18:06:10.639Z,3.30
2018-12-01T18:08:38.692Z,2.83
2018-12-01T18:11:07.275Z,3.60
2018-12-01T18:13:35.410Z,3.63
2018-12-01T18:16:03.456Z,3.30
2018-12-01T18:18:31.508Z,3.47
2018-12-01T18:20:59.729Z,3.30
2018-12-01T18:23:27.845Z,3.90
2018-12-01T18:25:56.271Z,3.53
2018-12-01T18:28:26.884Z,3.77
2018-12-01T18:30:55.848Z,3.33
2018-12-01T18:33:29.676Z,4.10
2018-12-01T18:35:57.737Z,3.77
2018-12-01T18:38:26.131Z,4.00
2018-12-01T18:40:54.216Z,4.80
2018-12-01T18:43:22.266Z,3.70
2018-12-01T18:45:52.725Z,4.00
2018-12-01T18:48:21.692Z,4.87
2018-12-01T18:50:50.304Z,4.00
2018-12-01T18:53:19.188Z,4.60
2018-12-01T18:55:51.555Z,3.50
2018-12-01T18:58:19.772Z,5.07
2018-12-01T19:00:52.052Z,4.70
2018-12-01T19:03:21.799Z,4.60
2018-12-01T19:05:49.856Z,4.57
2018-12-01T19:08:17.932Z,4.10
2018-12-01T19:10:45.984Z,4.03
2018-12-01T19:13:14.064Z,4.50
2018-12-01T19:15:42.123Z,4.50
2018-12-01T19:18:10.202Z,4.27
2018-12-01T19:20:38.572Z,4.20
2018-12-01T19:23:07.990Z,3.57
2018-12-01T19:25:36.404Z,3.73
2018-12-01T19:28:04.500Z,3.77
2018-12-01T19:30:32.603Z,3.80
2018-12-01T19:33:05.931Z,4.97
2018-12-01T19:35:34.116Z,3.97
2018-12-01T19:38:02.164Z,4.57
2018-12-01T19:40:31.896Z,4.00
2018-12-01T19:43:00.705Z,4.40
2018-12-01T19:45:28.805Z,5.33
2018-12-01T19:47:56.933Z,6.30
2018-12-01T19:50:28.156Z,14.60
2018-12-01T19:52:56.253Z,4.77
2018-12-01T19:55:25.388Z,5.20
2018-12-01T19:57:59.760Z,4.67
2018-12-01T20:00:28.952Z,4.13
2018-12-01T20:02:59.001Z,4.60
2018-12-01T20:05:27.191Z,5.10
2018-12-01T20:07:55.313Z,5.37
2018-12-01T20:10:26.797Z,6.20
2018-12-01T20:12:57.395Z,5.00
2018-12-01T20:15:29.128Z,4.10
2018-12-01T20:17:57.988Z,4.00
2018-12-01T20:20:26.028Z,4.83
2018-12-01T20:22:54.120Z,4.90
2018-12-01T20:25:22.242Z,5.33
2018-12-01T20:27:50.361Z,4.77
2018-12-01T20:30:20.577Z,4.53
2018-12-01T20:32:48.881Z,5.30
2018-12-01T20:35:20.426Z,4.80
2018-12-01T20:37:52.652Z,4.37
2018-12-01T20:40:20.767Z,4.50
2018-12-01T20:42:48.821Z,5.63
2018-12-01T20:45:16.992Z,4.73
2018-12-01T20:47:45.192Z,4.43
2018-12-01T20:50:15.024Z,3.87
2018-12-01T20:52:44.080Z,4.60
2018-12-01T20:55:15.636Z,3.77
2018-12-01T20:57:45.324Z,3.90
2018-12-01T21:00:13.440Z,3.90
2018-12-01T21:02:42.312Z,3.80
2018-12-01T21:05:13.085Z,3.90
2018-12-01T21:07:41.224Z,4.07
2018-12-01T21:10:11.337Z,3.60
2018-12-01T21:12:39.524Z,3.03
2018-12-01T21:15:10.331Z,3.40
2018-12-01T21:17:38.832Z,3.10
2018-12-01T21:20:11.329Z,3.80
2018-12-01T21:22:39.485Z,3.03
2018-12-01T21:25:12.669Z,3.23
2018-12-01T21:27:40.927Z,3.53
2018-12-01T21:30:13.727Z,2.77
2018-12-01T21:32:41.780Z,2.60
2018-12-01T21:35:11.961Z,2.67
2018-12-01T21:37:40.018Z,3.77
2018-12-01T21:40:14.619Z,3.80
2018-12-01T21:42:42.675Z,4.07
2018-12-01T21:45:12.070Z,2.20
2018-12-01T21:47:40.215Z,3.33
2018-12-01T21:50:16.465Z,1.70
2018-12-01T21:52:46.040Z,2.10
2018-12-01T21:55:14.088Z,2.27
2018-12-01T21:57:43.374Z,2.00
